sensor_id;sensor_type;location;lat;lon;timestamp;P1;durP1;ratioP1;P2;durP2;ratioP2
66870;SDS011;53780;44.998;9.926;2023-08-08T06:42:49;6.47;;;1.87;;
66870;SDS011;53780;44.998;9.926;2023-08-08T06:45:52;6.68;;;1.70;;
66870;SDS011;53780;44.998;9.926;2023-08-08T06:48:56;4.65;;;1.75;;
66870;SDS011;53780;44.998;9.926;2023-08-08T06:52:03;8.45;;;2.35;;
66870;SDS011;53780;44.998;9.926;2023-08-08T06:55:09;5.35;;;1.95;;
66870;SDS011;53780;44.998;9.926;2023-08-08T06:58:13;4.90;;;1.90;;
66870;SDS011;53780;44.998;9.926;2023-08-08T07:01:16;4.05;;;1.63;;
66870;SDS011;53780;44.998;9.926;2023-08-08T07:04:20;7.53;;;1.95;;
66870;SDS011;53780;44.998;9.926;2023-08-08T07:07:25;5.85;;;2.25;;
66870;SDS011;53780;44.998;9.926;2023-08-08T07:10:29;6.40;;;2.30;;
66870;SDS011;53780;44.998;9.926;2023-08-08T07:13:33;5.17;;;2.30;;
66870;SDS011;53780;44.998;9.926;2023-08-08T07:16:37;5.72;;;2.10;;
66870;SDS011;53780;44.998;9.926;2023-08-08T07:19:41;5.05;;;2.13;;
66870;SDS011;53780;44.998;9.926;2023-08-08T07:22:45;6.75;;;2.30;;
66870;SDS011;53780;44.998;9.926;2023-08-08T07:25:49;5.38;;;2.40;;
66870;SDS011;53780;44.998;9.926;2023-08-08T07:28:53;8.80;;;2.30;;
66870;SDS011;53780;44.998;9.926;2023-08-08T07:31:57;5.05;;;1.98;;
66870;SDS011;53780;44.998;9.926;2023-08-08T07:35:01;7.93;;;2.25;;
66870;SDS011;53780;44.998;9.926;2023-08-08T07:38:08;5.72;;;2.20;;
66870;SDS011;53780;44.998;9.926;2023-08-08T07:41:12;4.93;;;1.95;;
66870;SDS011;53780;44.998;9.926;2023-08-08T07:44:15;5.67;;;1.90;;
66870;SDS011;53780;44.998;9.926;2023-08-08T07:47:19;4.97;;;2.40;;
66870;SDS011;53780;44.998;9.926;2023-08-08T07:50:23;4.53;;;2.00;;
66870;SDS011;53780;44.998;9.926;2023-08-08T07:53:27;6.00;;;1.95;;
66870;SDS011;53780;44.998;9.926;2023-08-08T07:56:31;5.20;;;2.05;;
66870;SDS011;53780;44.998;9.926;2023-08-08T07:59:35;6.57;;;2.07;;
66870;SDS011;53780;44.998;9.926;2023-08-08T08:02:41;7.78;;;2.13;;
66870;SDS011;53780;44.998;9.926;2023-08-08T08:05:47;5.63;;;2.58;;
66870;SDS011;53780;44.998;9.926;2023-08-08T08:08:51;4.63;;;1.88;;
66870;SDS011;53780;44.998;9.926;2023-08-08T08:11:55;6.97;;;2.10;;
66870;SDS011;53780;44.998;9.926;2023-08-08T08:14:58;7.63;;;2.20;;
66870;SDS011;53780;44.998;9.926;2023-08-08T08:18:02;5.75;;;1.92;;
66870;SDS011;53780;44.998;9.926;2023-08-08T08:21:06;4.72;;;1.90;;
66870;SDS011;53780;44.998;9.926;2023-08-08T08:24:10;6.72;;;2.00;;
66870;SDS011;53780;44.998;9.926;2023-08-08T08:27:14;4.80;;;2.20;;
66870;SDS011;53780;44.998;9.926;2023-08-08T08:30:18;5.23;;;1.90;;
66870;SDS011;53780;44.998;9.926;2023-08-08T08:33:23;5.78;;;2.58;;
66870;SDS011;53780;44.998;9.926;2023-08-08T08:36:27;7.25;;;2.10;;
66870;SDS011;53780;44.998;9.926;2023-08-08T08:39:30;9.15;;;2.50;;
66870;SDS011;53780;44.998;9.926;2023-08-08T08:42:34;8.07;;;2.28;;
66870;SDS011;53780;44.998;9.926;2023-08-08T08:45:39;6.07;;;1.97;;
66870;SDS011;53780;44.998;9.926;2023-08-08T08:48:45;5.97;;;2.20;;
66870;SDS011;53780;44.998;9.926;2023-08-08T08:51:50;7.45;;;1.98;;
66870;SDS011;53780;44.998;9.926;2023-08-08T08:54:54;7.82;;;2.13;;
66870;SDS011;53780;44.998;9.926;2023-08-08T08:57:58;4.28;;;1.90;;
66870;SDS011;53780;44.998;9.926;2023-08-08T09:01:02;5.30;;;1.90;;
66870;SDS011;53780;44.998;9.926;2023-08-08T09:04:07;5.95;;;1.90;;
66870;SDS011;53780;44.998;9.926;2023-08-08T09:07:12;6.85;;;2.08;;
66870;SDS011;53780;44.998;9.926;2023-08-08T09:10:16;4.53;;;1.70;;
66870;SDS011;53780;44.998;9.926;2023-08-08T09:13:20;4.45;;;1.65;;
66870;SDS011;53780;44.998;9.926;2023-08-08T09:16:25;6.10;;;1.80;;
66870;SDS011;53780;44.998;9.926;2023-08-08T09:19:29;4.90;;;1.65;;
66870;SDS011;53780;44.998;9.926;2023-08-08T09:22:33;4.07;;;1.52;;
66870;SDS011;53780;44.998;9.926;2023-08-08T09:25:37;4.65;;;1.55;;
66870;SDS011;53780;44.998;9.926;2023-08-08T09:28:40;4.95;;;1.30;;
66870;SDS011;53780;44.998;9.926;2023-08-08T09:31:46;4.40;;;1.30;;
66870;SDS011;53780;44.998;9.926;2023-08-08T09:34:51;6.40;;;1.90;;
66870;SDS011;53780;44.998;9.926;2023-08-08T09:37:54;4.82;;;2.05;;
66870;SDS011;53780;44.998;9.926;2023-08-08T09:40:59;5.13;;;1.60;;
66870;SDS011;53780;44.998;9.926;2023-08-08T09:44:02;6.55;;;1.65;;
66870;SDS011;53780;44.998;9.926;2023-08-08T09:47:11;5.23;;;1.70;;
66870;SDS011;53780;44.998;9.926;2023-08-08T09:50:16;5.68;;;2.10;;
66870;SDS011;53780;44.998;9.926;2023-08-08T09:53:21;7.75;;;2.03;;
66870;SDS011;53780;44.998;9.926;2023-08-08T09:56:26;5.05;;;1.60;;
66870;SDS011;53780;44.998;9.926;2023-08-08T09:59:32;4.78;;;1.60;;
66870;SDS011;53780;44.998;9.926;2023-08-08T10:02:37;4.63;;;2.13;;
66870;SDS011;53780;44.998;9.926;2023-08-08T10:05:40;8.02;;;2.00;;
66870;SDS011;53780;44.998;9.926;2023-08-08T10:08:45;5.10;;;2.03;;
66870;SDS011;53780;44.998;9.926;2023-08-08T10:11:48;5.93;;;1.67;;
66870;SDS011;53780;44.998;9.926;2023-08-08T10:14:52;6.38;;;1.35;;
66870;SDS011;53780;44.998;9.926;2023-08-08T10:17:57;4.47;;;1.50;;
66870;SDS011;53780;44.998;9.926;2023-08-08T10:21:03;6.57;;;2.13;;
66870;SDS011;53780;44.998;9.926;2023-08-08T10:24:08;6.70;;;2.30;;
66870;SDS011;53780;44.998;9.926;2023-08-08T10:27:13;5.75;;;2.20;;
66870;SDS011;53780;44.998;9.926;2023-08-08T10:30:18;5.35;;;1.42;;
66870;SDS011;53780;44.998;9.926;2023-08-08T10:33:27;6.93;;;2.97;;
66870;SDS011;53780;44.998;9.926;2023-08-08T10:36:51;5.72;;;2.05;;
66870;SDS011;53780;44.998;9.926;2023-08-08T10:39:58;4.78;;;1.58;;
66870;SDS011;53780;44.998;9.926;2023-08-08T10:43:09;5.93;;;1.92;;
66870;SDS011;53780;44.998;9.926;2023-08-08T10:46:21;5.07;;;2.00;;
66870;SDS011;53780;44.998;9.926;2023-08-08T10:49:36;7.03;;;2.10;;
66870;SDS011;53780;44.998;9.926;2023-08-08T10:52:54;5.78;;;1.80;;
66870;SDS011;53780;44.998;9.926;2023-08-08T10:56:04;7.32;;;1.90;;
66870;SDS011;53780;44.998;9.926;2023-08-08T10:59:16;4.75;;;1.70;;
66870;SDS011;53780;44.998;9.926;2023-08-08T11:02:24;6.82;;;2.00;;
66870;SDS011;53780;44.998;9.926;2023-08-08T11:05:28;6.67;;;1.80;;
66870;SDS011;53780;44.998;9.926;2023-08-08T11:08:34;5.22;;;2.00;;
66870;SDS011;53780;44.998;9.926;2023-08-08T11:11:40;7.68;;;2.03;;
66870;SDS011;53780;44.998;9.926;2023-08-08T11:14:45;6.25;;;1.60;;
66870;SDS011;53780;44.998;9.926;2023-08-08T11:17:49;4.53;;;2.10;;
66870;SDS011;53780;44.998;9.926;2023-08-08T11:20:53;5.87;;;1.80;;
66870;SDS011;53780;44.998;9.926;2023-08-08T11:23:57;6.55;;;2.10;;
66870;SDS011;53780;44.998;9.926;2023-08-08T11:27:01;5.57;;;1.70;;
66870;SDS011;53780;44.998;9.926;2023-08-08T11:30:06;5.40;;;1.65;;
66870;SDS011;53780;44.998;9.926;2023-08-08T11:33:14;5.95;;;1.77;;
66870;SDS011;53780;44.998;9.926;2023-08-08T11:36:19;6.30;;;1.70;;
66870;SDS011;53780;44.998;9.926;2023-08-08T11:39:23;4.93;;;1.90;;
66870;SDS011;53780;44.998;9.926;2023-08-08T11:42:27;7.45;;;1.73;;
66870;SDS011;53780;44.998;9.926;2023-08-08T11:45:31;4.88;;;1.60;;
66870;SDS011;53780;44.998;9.926;2023-08-08T11:48:36;5.07;;;1.60;;
66870;SDS011;53780;44.998;9.926;2023-08-08T11:51:42;3.93;;;1.30;;
66870;SDS011;53780;44.998;9.926;2023-08-08T11:54:52;4.55;;;1.35;;
66870;SDS011;53780;44.998;9.926;2023-08-08T11:57:56;3.38;;;0.93;;
66870;SDS011;53780;44.998;9.926;2023-08-08T12:01:02;3.13;;;1.00;;
66870;SDS011;53780;44.998;9.926;2023-08-08T12:04:09;4.32;;;1.10;;
66870;SDS011;53780;44.998;9.926;2023-08-08T12:07:13;4.40;;;1.50;;
66870;SDS011;53780;44.998;9.926;2023-08-08T12:10:18;5.28;;;1.20;;
66870;SDS011;53780;44.998;9.926;2023-08-08T12:13:25;4.57;;;1.10;;
66870;SDS011;53780;44.998;9.926;2023-08-08T12:16:31;3.40;;;0.98;;
66870;SDS011;53780;44.998;9.926;2023-08-08T12:19:34;4.25;;;1.08;;
66870;SDS011;53780;44.998;9.926;2023-08-08T12:22:39;6.57;;;0.93;;
66870;SDS011;53780;44.998;9.926;2023-08-08T12:25:43;4.28;;;1.02;;
66870;SDS011;53780;44.998;9.926;2023-08-08T12:28:47;3.40;;;0.93;;
66870;SDS011;53780;44.998;9.926;2023-08-08T12:31:50;3.15;;;0.90;;
66870;SDS011;53780;44.998;9.926;2023-08-08T12:34:55;5.00;;;1.10;;
66870;SDS011;53780;44.998;9.926;2023-08-08T12:37:59;3.07;;;0.90;;
66870;SDS011;53780;44.998;9.926;2023-08-08T12:41:03;5.53;;;1.05;;
66870;SDS011;53780;44.998;9.926;2023-08-08T12:44:07;3.10;;;0.85;;
66870;SDS011;53780;44.998;9.926;2023-08-08T12:47:11;2.72;;;0.90;;
66870;SDS011;53780;44.998;9.926;2023-08-08T12:50:15;4.32;;;0.90;;
66870;SDS011;53780;44.998;9.926;2023-08-08T12:53:19;3.47;;;1.00;;
66870;SDS011;53780;44.998;9.926;2023-08-08T12:56:23;3.15;;;0.80;;
66870;SDS011;53780;44.998;9.926;2023-08-08T12:59:27;3.75;;;0.65;;
66870;SDS011;53780;44.998;9.926;2023-08-08T13:02:32;3.03;;;0.70;;
66870;SDS011;53780;44.998;9.926;2023-08-08T13:05:36;2.97;;;0.93;;
66870;SDS011;53780;44.998;9.926;2023-08-08T13:08:40;4.47;;;1.00;;
66870;SDS011;53780;44.998;9.926;2023-08-08T13:11:44;3.95;;;0.90;;
66870;SDS011;53780;44.998;9.926;2023-08-08T13:14:48;4.47;;;0.70;;
66870;SDS011;53780;44.998;9.926;2023-08-08T13:17:52;3.58;;;1.00;;
66870;SDS011;53780;44.998;9.926;2023-08-08T13:20:56;3.53;;;0.70;;
66870;SDS011;53780;44.998;9.926;2023-08-08T13:24:00;3.80;;;0.60;;
66870;SDS011;53780;44.998;9.926;2023-08-08T13:27:04;8.90;;;0.68;;
66870;SDS011;53780;44.998;9.926;2023-08-08T13:30:08;2.60;;;0.60;;
66870;SDS011;53780;44.998;9.926;2023-08-08T13:33:12;2.80;;;0.90;;
66870;SDS011;53780;44.998;9.926;2023-08-08T13:36:17;2.78;;;0.70;;
66870;SDS011;53780;44.998;9.926;2023-08-08T13:39:21;2.37;;;0.70;;
66870;SDS011;53780;44.998;9.926;2023-08-08T13:42:24;2.83;;;0.77;;
66870;SDS011;53780;44.998;9.926;2023-08-08T13:45:28;3.80;;;0.60;;
66870;SDS011;53780;44.998;9.926;2023-08-08T13:48:33;3.22;;;0.80;;
66870;SDS011;53780;44.998;9.926;2023-08-08T13:51:38;3.58;;;0.73;;
66870;SDS011;53780;44.998;9.926;2023-08-08T13:54:42;3.37;;;0.80;;
66870;SDS011;53780;44.998;9.926;2023-08-08T13:57:46;4.18;;;0.80;;
66870;SDS011;53780;44.998;9.926;2023-08-08T14:00:50;7.72;;;1.50;;
66870;SDS011;53780;44.998;9.926;2023-08-08T14:03:54;13.98;;;2.65;;
66870;SDS011;53780;44.998;9.926;2023-08-08T14:06:58;9.13;;;2.00;;
66870;SDS011;53780;44.998;9.926;2023-08-08T14:10:03;25.10;;;4.57;;
66870;SDS011;53780;44.998;9.926;2023-08-08T14:13:09;17.48;;;3.55;;
66870;SDS011;53780;44.998;9.926;2023-08-08T14:16:15;33.50;;;5.80;;
66870;SDS011;53780;44.998;9.926;2023-08-08T14:19:18;4.88;;;1.02;;
66870;SDS011;53780;44.998;9.926;2023-08-08T14:22:22;18.42;;;3.45;;
66870;SDS011;53780;44.998;9.926;2023-08-08T14:25:26;8.87;;;1.30;;
66870;SDS011;53780;44.998;9.926;2023-08-08T14:28:30;9.50;;;1.80;;
66870;SDS011;53780;44.998;9.926;2023-08-08T14:31:33;14.65;;;2.20;;
66870;SDS011;53780;44.998;9.926;2023-08-08T14:34:37;5.43;;;1.20;;
66870;SDS011;53780;44.998;9.926;2023-08-08T14:37:43;6.78;;;1.58;;
66870;SDS011;53780;44.998;9.926;2023-08-08T14:40:47;12.00;;;1.83;;
66870;SDS011;53780;44.998;9.926;2023-08-08T14:43:51;6.70;;;1.20;;
66870;SDS011;53780;44.998;9.926;2023-08-08T14:46:54;3.58;;;0.80;;
66870;SDS011;53780;44.998;9.926;2023-08-08T14:49:58;4.38;;;1.00;;
66870;SDS011;53780;44.998;9.926;2023-08-08T14:53:02;3.75;;;0.77;;
66870;SDS011;53780;44.998;9.926;2023-08-08T14:56:07;3.37;;;0.80;;
66870;SDS011;53780;44.998;9.926;2023-08-08T14:59:11;4.55;;;0.85;;
66870;SDS011;53780;44.998;9.926;2023-08-08T15:02:15;3.28;;;0.80;;
66870;SDS011;53780;44.998;9.926;2023-08-08T15:05:19;4.70;;;0.73;;
66870;SDS011;53780;44.998;9.926;2023-08-08T15:08:23;3.20;;;0.70;;
66870;SDS011;53780;44.998;9.926;2023-08-08T15:11:28;3.00;;;0.90;;
66870;SDS011;53780;44.998;9.926;2023-08-08T15:14:32;3.72;;;0.82;;
66870;SDS011;53780;44.998;9.926;2023-08-08T15:17:36;4.53;;;0.60;;
66870;SDS011;53780;44.998;9.926;2023-08-08T15:20:40;3.60;;;1.00;;
66870;SDS011;53780;44.998;9.926;2023-08-08T15:23:44;4.28;;;0.82;;
66870;SDS011;53780;44.998;9.926;2023-08-08T15:26:48;3.00;;;0.70;;
66870;SDS011;53780;44.998;9.926;2023-08-08T15:29:51;4.22;;;0.70;;
66870;SDS011;53780;44.998;9.926;2023-08-08T15:32:55;3.60;;;0.80;;
66870;SDS011;53780;44.998;9.926;2023-08-08T15:35:59;3.33;;;0.80;;
66870;SDS011;53780;44.998;9.926;2023-08-08T15:39:03;5.55;;;0.90;;
66870;SDS011;53780;44.998;9.926;2023-08-08T15:42:07;5.43;;;0.90;;
66870;SDS011;53780;44.998;9.926;2023-08-08T15:45:11;3.20;;;1.08;;
66870;SDS011;53780;44.998;9.926;2023-08-08T15:48:16;3.53;;;1.00;;
66870;SDS011;53780;44.998;9.926;2023-08-08T15:51:20;2.85;;;0.90;;
66870;SDS011;53780;44.998;9.926;2023-08-08T15:54:24;5.50;;;0.80;;
66870;SDS011;53780;44.998;9.926;2023-08-08T15:57:27;4.03;;;1.00;;
66870;SDS011;53780;44.998;9.926;2023-08-08T16:00:31;2.90;;;0.80;;
66870;SDS011;53780;44.998;9.926;2023-08-08T16:03:35;3.78;;;1.13;;
66870;SDS011;53780;44.998;9.926;2023-08-08T16:06:38;3.78;;;0.90;;
66870;SDS011;53780;44.998;9.926;2023-08-08T16:09:42;2.55;;;0.80;;
66870;SDS011;53780;44.998;9.926;2023-08-08T16:12:46;3.90;;;0.80;;
66870;SDS011;53780;44.998;9.926;2023-08-08T16:15:50;4.85;;;0.93;;
66870;SDS011;53780;44.998;9.926;2023-08-08T16:18:54;5.95;;;0.93;;
66870;SDS011;53780;44.998;9.926;2023-08-08T16:21:57;3.50;;;0.90;;
66870;SDS011;53780;44.998;9.926;2023-08-08T16:25:02;5.45;;;0.80;;
66870;SDS011;53780;44.998;9.926;2023-08-08T16:28:07;3.63;;;0.70;;
66870;SDS011;53780;44.998;9.926;2023-08-08T16:31:11;3.30;;;0.80;;
66870;SDS011;53780;44.998;9.926;2023-08-08T16:34:14;3.28;;;0.80;;
66870;SDS011;53780;44.998;9.926;2023-08-08T16:37:18;6.13;;;1.00;;
66870;SDS011;53780;44.998;9.926;2023-08-08T16:40:22;3.28;;;0.70;;
66870;SDS011;53780;44.998;9.926;2023-08-08T16:43:26;4.33;;;0.87;;
66870;SDS011;53780;44.998;9.926;2023-08-08T16:46:34;4.72;;;1.00;;
66870;SDS011;53780;44.998;9.926;2023-08-08T16:49:38;3.78;;;0.80;;
66870;SDS011;53780;44.998;9.926;2023-08-08T16:52:43;3.85;;;0.90;;
66870;SDS011;53780;44.998;9.926;2023-08-08T16:55:46;3.90;;;0.80;;
66870;SDS011;53780;44.998;9.926;2023-08-08T16:58:50;3.73;;;0.80;;
66870;SDS011;53780;44.998;9.926;2023-08-08T17:01:54;3.35;;;1.02;;
66870;SDS011;53780;44.998;9.926;2023-08-08T17:04:57;3.97;;;0.90;;
66870;SDS011;53780;44.998;9.926;2023-08-08T17:08:01;3.40;;;0.90;;
66870;SDS011;53780;44.998;9.926;2023-08-08T17:11:05;3.67;;;0.80;;
66870;SDS011;53780;44.998;9.926;2023-08-08T17:14:09;5.87;;;0.87;;
66870;SDS011;53780;44.998;9.926;2023-08-08T17:17:14;2.55;;;0.70;;
66870;SDS011;53780;44.998;9.926;2023-08-08T17:20:19;6.45;;;1.00;;
66870;SDS011;53780;44.998;9.926;2023-08-08T17:23:22;4.40;;;0.75;;
66870;SDS011;53780;44.998;9.926;2023-08-08T17:26:27;4.07;;;0.90;;
66870;SDS011;53780;44.998;9.926;2023-08-08T17:29:31;3.20;;;0.63;;
66870;SDS011;53780;44.998;9.926;2023-08-08T17:32:35;7.25;;;0.80;;
66870;SDS011;53780;44.998;9.926;2023-08-08T17:35:39;3.08;;;0.82;;
66870;SDS011;53780;44.998;9.926;2023-08-08T17:38:43;3.03;;;0.80;;
66870;SDS011;53780;44.998;9.926;2023-08-08T17:41:47;4.82;;;0.90;;
66870;SDS011;53780;44.998;9.926;2023-08-08T17:44:51;4.53;;;0.83;;
66870;SDS011;53780;44.998;9.926;2023-08-08T17:47:55;3.92;;;0.68;;
66870;SDS011;53780;44.998;9.926;2023-08-08T17:50:58;6.25;;;1.00;;
66870;SDS011;53780;44.998;9.926;2023-08-08T17:54:02;5.68;;;1.00;;
66870;SDS011;53780;44.998;9.926;2023-08-08T17:57:06;5.18;;;0.90;;
66870;SDS011;53780;44.998;9.926;2023-08-08T18:00:10;5.33;;;0.90;;
66870;SDS011;53780;44.998;9.926;2023-08-08T18:03:14;4.85;;;0.98;;
66870;SDS011;53780;44.998;9.926;2023-08-08T18:06:17;4.00;;;0.90;;
66870;SDS011;53780;44.998;9.926;2023-08-08T18:09:21;3.55;;;1.00;;
66870;SDS011;53780;44.998;9.926;2023-08-08T18:12:25;2.90;;;0.73;;
66870;SDS011;53780;44.998;9.926;2023-08-08T18:15:29;5.00;;;1.00;;
66870;SDS011;53780;44.998;9.926;2023-08-08T18:18:33;4.22;;;0.90;;
66870;SDS011;53780;44.998;9.926;2023-08-08T18:21:37;4.90;;;0.82;;
66870;SDS011;53780;44.998;9.926;2023-08-08T18:24:40;4.15;;;1.00;;
66870;SDS011;53780;44.998;9.926;2023-08-08T18:27:44;4.35;;;1.00;;
66870;SDS011;53780;44.998;9.926;2023-08-08T18:30:48;7.50;;;1.00;;
66870;SDS011;53780;44.998;9.926;2023-08-08T18:33:59;4.45;;;0.90;;
66870;SDS011;53780;44.998;9.926;2023-08-08T18:37:03;2.88;;;1.00;;
66870;SDS011;53780;44.998;9.926;2023-08-08T18:40:07;5.90;;;1.08;;
66870;SDS011;53780;44.998;9.926;2023-08-08T18:43:13;5.35;;;0.98;;
66870;SDS011;53780;44.998;9.926;2023-08-08T18:46:16;6.43;;;0.90;;
66870;SDS011;53780;44.998;9.926;2023-08-08T18:49:22;3.58;;;1.13;;
66870;SDS011;53780;44.998;9.926;2023-08-08T18:52:25;5.65;;;0.98;;
66870;SDS011;53780;44.998;9.926;2023-08-08T18:55:30;5.55;;;0.90;;
66870;SDS011;53780;44.998;9.926;2023-08-08T18:58:34;3.80;;;0.80;;
66870;SDS011;53780;44.998;9.926;2023-08-08T19:01:38;2.83;;;0.90;;
66870;SDS011;53780;44.998;9.926;2023-08-08T19:04:42;5.25;;;1.00;;
66870;SDS011;53780;44.998;9.926;2023-08-08T19:07:46;4.90;;;0.90;;
66870;SDS011;53780;44.998;9.926;2023-08-08T19:10:50;3.00;;;0.80;;
66870;SDS011;53780;44.998;9.926;2023-08-08T19:13:54;5.57;;;0.90;;
66870;SDS011;53780;44.998;9.926;2023-08-08T19:16:58;4.13;;;0.90;;
66870;SDS011;53780;44.998;9.926;2023-08-08T19:20:01;3.53;;;0.98;;
66870;SDS011;53780;44.998;9.926;2023-08-08T19:23:06;3.13;;;0.82;;
66870;SDS011;53780;44.998;9.926;2023-08-08T19:26:11;4.50;;;1.00;;
66870;SDS011;53780;44.998;9.926;2023-08-08T19:29:15;5.32;;;1.13;;
66870;SDS011;53780;44.998;9.926;2023-08-08T19:32:19;3.30;;;0.97;;
66870;SDS011;53780;44.998;9.926;2023-08-08T19:35:22;3.28;;;0.93;;
66870;SDS011;53780;44.998;9.926;2023-08-08T19:38:26;4.88;;;1.25;;
66870;SDS011;53780;44.998;9.926;2023-08-08T19:41:30;4.47;;;1.00;;
66870;SDS011;53780;44.998;9.926;2023-08-08T19:44:34;4.25;;;0.93;;
66870;SDS011;53780;44.998;9.926;2023-08-08T19:47:38;3.87;;;0.80;;
66870;SDS011;53780;44.998;9.926;2023-08-08T19:50:42;3.10;;;1.00;;
66870;SDS011;53780;44.998;9.926;2023-08-08T19:53:46;3.90;;;1.05;;
66870;SDS011;53780;44.998;9.926;2023-08-08T19:56:51;4.30;;;1.60;;
66870;SDS011;53780;44.998;9.926;2023-08-08T19:59:56;3.70;;;1.20;;
66870;SDS011;53780;44.998;9.926;2023-08-08T20:03:00;5.90;;;1.13;;
66870;SDS011;53780;44.998;9.926;2023-08-08T20:06:04;3.80;;;1.20;;
66870;SDS011;53780;44.998;9.926;2023-08-08T20:09:08;4.85;;;1.20;;
66870;SDS011;53780;44.998;9.926;2023-08-08T20:12:12;5.68;;;1.38;;
66870;SDS011;53780;44.998;9.926;2023-08-08T20:15:16;6.38;;;1.50;;
66870;SDS011;53780;44.998;9.926;2023-08-08T20:18:20;4.83;;;1.27;;
66870;SDS011;53780;44.998;9.926;2023-08-08T20:21:24;6.05;;;1.50;;
66870;SDS011;53780;44.998;9.926;2023-08-08T20:24:28;4.30;;;1.40;;
66870;SDS011;53780;44.998;9.926;2023-08-08T20:27:31;5.95;;;1.50;;
66870;SDS011;53780;44.998;9.926;2023-08-08T20:30:36;6.60;;;1.70;;
66870;SDS011;53780;44.998;9.926;2023-08-08T20:33:40;9.77;;;1.80;;
66870;SDS011;53780;44.998;9.926;2023-08-08T20:36:48;6.53;;;1.60;;
66870;SDS011;53780;44.998;9.926;2023-08-08T20:39:52;7.05;;;1.75;;
66870;SDS011;53780;44.998;9.926;2023-08-08T20:42:57;7.90;;;2.00;;
66870;SDS011;53780;44.998;9.926;2023-08-08T20:46:00;6.72;;;2.00;;
66870;SDS011;53780;44.998;9.926;2023-08-08T20:49:04;6.90;;;1.80;;
66870;SDS011;53780;44.998;9.926;2023-08-08T20:52:08;7.03;;;1.95;;
66870;SDS011;53780;44.998;9.926;2023-08-08T20:55:12;6.22;;;2.05;;
66870;SDS011;53780;44.998;9.926;2023-08-08T20:58:16;6.65;;;2.33;;
66870;SDS011;53780;44.998;9.926;2023-08-08T21:01:20;5.10;;;1.92;;
66870;SDS011;53780;44.998;9.926;2023-08-08T21:04:23;6.07;;;2.00;;
66870;SDS011;53780;44.998;9.926;2023-08-08T21:07:28;5.72;;;1.90;;
66870;SDS011;53780;44.998;9.926;2023-08-08T21:10:33;8.48;;;2.35;;
66870;SDS011;53780;44.998;9.926;2023-08-08T21:13:36;7.35;;;1.90;;
66870;SDS011;53780;44.998;9.926;2023-08-08T21:16:40;5.28;;;1.70;;
66870;SDS011;53780;44.998;9.926;2023-08-08T21:19:44;8.00;;;2.07;;
66870;SDS011;53780;44.998;9.926;2023-08-08T21:22:48;9.60;;;2.15;;
66870;SDS011;53780;44.998;9.926;2023-08-08T21:25:51;6.20;;;2.08;;
66870;SDS011;53780;44.998;9.926;2023-08-08T21:28:55;6.88;;;1.95;;
66870;SDS011;53780;44.998;9.926;2023-08-08T21:31:59;8.10;;;2.08;;
66870;SDS011;53780;44.998;9.926;2023-08-08T21:35:03;6.37;;;2.00;;
66870;SDS011;53780;44.998;9.926;2023-08-08T21:38:07;5.53;;;1.75;;
66870;SDS011;53780;44.998;9.926;2023-08-08T21:41:13;10.95;;;2.20;;
66870;SDS011;53780;44.998;9.926;2023-08-08T21:44:18;8.88;;;1.90;;
66870;SDS011;53780;44.998;9.926;2023-08-08T21:47:22;7.38;;;1.98;;
66870;SDS011;53780;44.998;9.926;2023-08-08T21:50:25;10.83;;;1.83;;
66870;SDS011;53780;44.998;9.926;2023-08-08T21:53:29;5.45;;;1.73;;
66870;SDS011;53780;44.998;9.926;2023-08-08T21:56:33;7.88;;;1.40;;
66870;SDS011;53780;44.998;9.926;2023-08-08T21:59:37;7.15;;;1.65;;
66870;SDS011;53780;44.998;9.926;2023-08-08T22:02:41;4.55;;;1.48;;
66870;SDS011;53780;44.998;9.926;2023-08-08T22:05:45;4.77;;;1.60;;
66870;SDS011;53780;44.998;9.926;2023-08-08T22:08:49;6.32;;;1.70;;
66870;SDS011;53780;44.998;9.926;2023-08-08T22:11:53;6.88;;;1.90;;
66870;SDS011;53780;44.998;9.926;2023-08-08T22:14:57;4.45;;;1.60;;
66870;SDS011;53780;44.998;9.926;2023-08-08T22:18:14;5.60;;;1.80;;
66870;SDS011;53780;44.998;9.926;2023-08-08T22:21:20;5.53;;;2.00;;
66870;SDS011;53780;44.998;9.926;2023-08-08T22:24:24;5.40;;;2.30;;
66870;SDS011;53780;44.998;9.926;2023-08-08T22:27:27;7.55;;;2.55;;
66870;SDS011;53780;44.998;9.926;2023-08-08T22:30:31;7.07;;;2.17;;
66870;SDS011;53780;44.998;9.926;2023-08-08T22:33:35;7.60;;;2.28;;
66870;SDS011;53780;44.998;9.926;2023-08-08T22:36:39;4.07;;;1.90;;
